createdAt,value
2024-04-17T00:01:13.088Z,24.1
2024-04-17T00:06:51.217Z,24.1
2024-04-17T00:12:27.177Z,24.1
2024-04-17T00:18:03.239Z,24.1
2024-04-17T00:23:40.513Z,24.1
2024-04-17T00:29:16.964Z,24.1
2024-04-17T00:34:53.585Z,24.1
2024-04-17T00:40:29.686Z,24.1
2024-04-17T00:46:06.310Z,24.1
2024-04-17T00:51:43.650Z,24.1
2024-04-17T00:57:20.234Z,24.1
2024-04-17T01:02:56.372Z,24.1
2024-04-17T01:08:33.013Z,24.1
2024-04-17T01:14:10.762Z,24.1
2024-04-17T01:19:48.112Z,24.1
2024-04-17T01:25:24.164Z,24.1
2024-04-17T01:31:01.187Z,24.1
2024-04-17T01:36:37.611Z,24.1
2024-04-17T01:42:13.637Z,24.1
2024-04-17T01:47:53.807Z,24
2024-04-17T01:53:30.285Z,24.1
2024-04-17T01:59:05.454Z,24
2024-04-17T02:04:42.781Z,24
2024-04-17T02:10:03.312Z,24.1
2024-04-17T02:15:24.602Z,24.1
2024-04-17T02:21:02.072Z,24
2024-04-17T02:26:23.091Z,24
2024-04-17T02:31:59.449Z,24
2024-04-17T02:37:36.674Z,24
2024-04-17T02:43:12.002Z,24
2024-04-17T02:48:48.244Z,24
2024-04-17T02:54:24.988Z,24
2024-04-17T03:00:00.640Z,24
2024-04-17T03:05:37.578Z,24
2024-04-17T03:11:14.192Z,24
2024-04-17T03:16:53.207Z,24
2024-04-17T03:22:29.671Z,24
2024-04-17T03:27:51.180Z,24
2024-04-17T03:33:27.987Z,24
2024-04-17T03:39:03.715Z,24
2024-04-17T03:44:40.095Z,23.9
2024-04-17T03:50:16.851Z,23.9
2024-04-17T03:55:53.091Z,23.9
2024-04-17T04:01:29.073Z,23.9
2024-04-17T04:07:06.492Z,23.9
2024-04-17T04:12:42.872Z,23.9
2024-04-17T04:18:20.828Z,24
2024-04-17T04:23:56.996Z,24
2024-04-17T04:29:33.600Z,24
2024-04-17T04:35:12.088Z,24
2024-04-17T04:40:48.229Z,23.9
2024-04-17T04:46:24.336Z,23.9
2024-04-17T04:52:06.044Z,23.9
2024-04-17T04:57:42.954Z,23.9
2024-04-17T05:03:20.590Z,23.8
2024-04-17T05:08:57.977Z,23.8
2024-04-17T05:14:34.357Z,23.8
2024-04-17T05:20:11.608Z,23.8
2024-04-17T05:25:36.387Z,23.8
2024-04-17T05:31:12.386Z,23.8
2024-04-17T05:36:48.591Z,23.7
2024-04-17T05:42:25.930Z,23.7
2024-04-17T05:48:02.180Z,23.7
2024-04-17T05:53:43.924Z,23.7
2024-04-17T05:59:20.658Z,23.7
2024-04-17T06:04:58.430Z,23.6
2024-04-17T06:10:36.894Z,23.7
2024-04-17T06:16:16.709Z,23.8
2024-04-17T06:21:57.037Z,24.3
2024-04-17T06:27:33.299Z,24.8
2024-04-17T06:33:10.668Z,25.4
2024-04-17T06:38:47.268Z,26
2024-04-17T06:44:33.810Z,26.6
2024-04-17T06:50:11.098Z,27.1
2024-04-17T06:55:50.510Z,27.7
2024-04-17T07:01:10.715Z,28.3
2024-04-17T07:06:45.728Z,28.9
2024-04-17T07:12:23.691Z,29.4
2024-04-17T07:17:59.592Z,30
2024-04-17T07:23:36.289Z,30.6
2024-04-17T07:29:13.924Z,31.2
2024-04-17T07:34:35.106Z,31.7
2024-04-17T07:39:56.507Z,32.2
2024-04-17T07:45:34.133Z,32.6
2024-04-17T07:51:15.807Z,33.1
2024-04-17T07:56:55.522Z,33.4
2024-04-17T08:02:31.726Z,33.8
2024-04-17T08:08:08.297Z,34.3
2024-04-17T08:13:48.610Z,34.8
2024-04-17T08:19:25.804Z,35.3
2024-04-17T08:25:02.895Z,35.7
2024-04-17T08:30:39.659Z,36.2
2024-04-17T08:36:17.002Z,36.7
2024-04-17T08:41:57.126Z,37.1
2024-04-17T08:47:47.115Z,37.3
2024-04-17T08:53:08.655Z,37.5
2024-04-17T08:58:44.669Z,37.8
2024-04-17T09:04:06.664Z,37.9
2024-04-17T09:09:43.177Z,38.1
2024-04-17T09:15:30.155Z,38.3
2024-04-17T09:21:09.961Z,38.4
2024-04-17T09:26:46.658Z,38.6
2024-04-17T09:32:24.627Z,38.8
2024-04-17T09:38:04.252Z,38.9
2024-04-17T09:43:52.632Z,38.9
2024-04-17T09:49:28.998Z,39
2024-04-17T09:55:18.501Z,39.1
2024-04-17T10:01:04.378Z,38.9
2024-04-17T10:06:44.005Z,38.9
2024-04-17T10:12:24.023Z,38.8
2024-04-17T10:18:20.277Z,38.5
2024-04-17T10:23:56.616Z,37
2024-04-17T10:29:42.051Z,35.8
2024-04-17T10:35:03.014Z,34.9
2024-04-17T10:40:57.596Z,33.6
2024-04-17T10:46:34.160Z,39.3
2024-04-17T10:52:11.197Z,36.9
2024-04-17T10:57:50.003Z,35.5
2024-04-17T11:03:26.405Z,35.1
2024-04-17T11:09:14.354Z,36.2
2024-04-17T11:14:50.948Z,38.4
2024-04-17T11:20:28.852Z,36.3
2024-04-17T11:26:06.676Z,35.8
2024-04-17T11:31:53.579Z,34.9
2024-04-17T11:37:30.422Z,37.3
2024-04-17T11:43:12.851Z,32.9
2024-04-17T11:48:55.034Z,32.1
2024-04-17T11:54:33.061Z,31.2
2024-04-17T17:17:26.191Z,24.7
2024-04-17T17:23:15.519Z,24.6
2024-04-17T17:28:59.924Z,24.7
2024-04-17T17:34:42.866Z,24.6
2024-04-17T17:40:24.588Z,24.6
2024-04-17T17:46:06.278Z,24.6
2024-04-17T17:51:33.231Z,24.6
2024-04-17T17:57:16.313Z,24.6
2024-04-17T18:03:00.806Z,24.6
2024-04-17T18:08:43.388Z,24.6
2024-04-17T18:14:26.142Z,24.6
2024-04-17T18:20:16.494Z,24.6
2024-04-17T18:25:11.045Z,24.5
2024-04-17T18:30:21.893Z,24.5
2024-04-17T18:35:30.429Z,24.4
2024-04-17T18:40:40.941Z,24.4
2024-04-17T18:45:33.920Z,24.4
2024-04-17T18:50:41.537Z,24.4
2024-04-17T18:55:51.466Z,24.3
2024-04-17T19:00:57.298Z,24.3
2024-04-17T19:06:18.799Z,24.3
2024-04-17T19:11:45.156Z,24.3
2024-04-17T19:17:06.236Z,24.2
2024-04-17T19:22:12.379Z,24.2
2024-04-17T19:27:18.775Z,24.2
2024-04-17T19:32:40.821Z,24.1
2024-04-17T19:37:48.037Z,24.1
2024-04-17T19:43:48.201Z,24.1
2024-04-17T19:49:30.126Z,24.1
2024-04-17T19:55:06.162Z,24.1
2024-04-17T20:00:56.128Z,24.1
2024-04-17T20:06:35.283Z,24.1
2024-04-17T20:11:57.695Z,24.1
2024-04-17T20:17:22.596Z,24.1
2024-04-17T20:23:11.777Z,24
2024-04-17T20:28:53.101Z,24
2024-04-17T20:34:24.301Z,24
2024-04-17T20:39:46.580Z,24
2024-04-17T20:45:34.552Z,24
2024-04-17T20:51:11.881Z,24
2024-04-17T20:56:49.012Z,24
2024-04-17T21:02:27.069Z,24
2024-04-17T21:08:05.104Z,24
2024-04-17T21:13:42.622Z,23.9
2024-04-17T21:19:20.247Z,24
2024-04-17T21:24:56.643Z,23.9
2024-04-17T21:30:33.591Z,24
2024-04-17T21:36:10.948Z,24
2024-04-17T21:41:32.229Z,23.9
2024-04-17T21:46:53.575Z,24
2024-04-17T21:52:30.565Z,23.9
2024-04-17T21:58:09.367Z,23.9
2024-04-17T22:03:48.076Z,23.9
2024-04-17T22:09:25.267Z,23.9
2024-04-17T22:15:06.141Z,23.9
2024-04-17T22:20:43.243Z,23.9
2024-04-17T22:26:19.851Z,23.9
2024-04-17T22:31:56.709Z,23.9
2024-04-17T22:37:36.451Z,23.9
2024-04-17T22:43:13.363Z,23.9
2024-04-17T22:48:53.836Z,23.9
2024-04-17T22:54:15.197Z,23.9
2024-04-17T22:59:51.580Z,23.9
2024-04-17T23:05:28.691Z,23.9
2024-04-17T23:11:05.836Z,23.9
2024-04-17T23:16:43.622Z,24
2024-04-17T23:22:30.674Z,23.9
2024-04-17T23:28:07.240Z,23.9
2024-04-17T23:33:28.344Z,23.9
2024-04-17T23:39:05.599Z,24
2024-04-17T23:44:42.903Z,23.9
2024-04-17T23:50:19.604Z,23.9
2024-04-17T23:55:56.564Z,23.9
